Murray City, OH

6:36 PM EST on March 05, 2015 (GMT -0500)
Zanesville Municipal | Change Station
CLOSE
Current Station
Airport
Location: Zanesville,
Elevation: 899 ft
Nearby Weather Stations

Elev 899 ft 39.94 °N, 81.89 °W | Updated 43 minutes ago

Overcast
Overcast
19 °F
Feels Like 11 °F
N
6
Wind Variable Wind from North

Today
High -- | Low -- °F
--% Chance of Precip.
Yesterday
High -- | Low -- °F
Precip. -- in
6:55 AM 6:24 PM
Full, 100% visible
Pressure 30.45 in
Visibility 10.0 miles
Clouds Overcast 4500 ft
Windchill 11 °F
Dew Point 3 °F
Humidity 50%
Rainfall 0.04 in
Snow Depth Not available.
UV 0 out of 12
Pollen .60 out of 12
Air Quality Not available.
Flu Activity Not available.
METAR KZZV 052253Z AUTO 35005KT 10SM OVC045 M07/M16 A3041 RMK AO2 SLP312 T10721161 TSNO

More Conditions Fewer Conditions

Pressure 30.45 in
Visibility 10.0 miles
Clouds Overcast 4500 ft
Windchill 11 °F
Dew Point 3 °F
Humidity 50%
Rainfall 0.04 in
Snow Depth Not available.
UV 0 out of 12
Pollen .60 out of 12
Air Quality Not available.
Flu Activity Not available.
METAR KZZV 052253Z AUTO 35005KT 10SM OVC045 M07/M16 A3041 RMK AO2 SLP312 T10721161 TSNO

More Conditions Fewer Conditions

10-Day Weather Forecast

Almanac

Astronomy

Mar. 05, 2015 Rise Set
Actual Time
Civil Twilight
Nautical Twilight
Astronomical Twilight
Moon
Length of Visible Light
Length of Day
Tomorrow will be .
, % of the Moon is Illuminated

Today's Extremes

State Highs State Lows

Community

WunderPhotos

Upload Photos

1,803,057 photos uploaded!

WunderBlogs® & News

Nearby

Air Quality

  Air Quality AQ Index Pollutant
Not available.

Snow Depth

Station Depth Elevation

Earthquake Activity

City Distance Mag. Time & Date
Minimum magnitude displayed is 2.5.

Coastal Water Temperatures

Place Temperature

Nearby Weather Stations